Time;durP1;ratioP1;P1;durP2;ratioP2;P2;SDS_P1;SDS_P2;PMS_P1;PMS_P2;Temp;Humidity;BMP_temperature;BMP_pressure;BME280_temperature;BME280_humidity;BME280_pressure;Samples;Min_cycle;Max_cycle;Signal;HPM_P1;HPM_P2
2021/05/07 00:00:38;;;;;;;16.95;9.75;;;;;;;6.49;72.19;99510.00;1774297;80;21190;-67
2021/05/07 00:03:06;;;;;;;20.92;10.08;;;;;;;6.52;72.22;99510.98;1774289;80;21116;-67
2021/05/07 00:05:32;;;;;;;18.35;10.68;;;;;;;6.48;72.23;99504.36;1774032;80;21211;-67
2021/05/07 00:07:58;;;;;;;18.00;10.10;;;;;;;6.43;72.29;99511.99;1774161;80;21175;-67
2021/05/07 00:10:26;;;;;;;19.42;9.78;;;;;;;6.39;72.33;99504.04;1774116;80;21118;-67
2021/05/07 00:12:53;;;;;;;17.40;10.78;;;;;;;6.39;72.37;99501.88;1774129;80;21196;-67
2021/05/07 00:15:19;;;;;;;15.85;9.33;;;;;;;6.37;72.41;99496.73;1774007;80;21530;-67
2021/05/07 00:17:45;;;;;;;21.12;10.20;;;;;;;6.35;72.45;99493.44;1774294;80;21194;-67
2021/05/07 00:20:12;;;;;;;16.48;9.20;;;;;;;6.33;72.50;99498.06;1773958;80;21732;-67
2021/05/07 00:22:42;;;;;;;13.05;8.05;;;;;;;6.31;72.54;99498.73;1774018;80;21111;-67
2021/05/07 00:25:10;;;;;;;15.32;8.70;;;;;;;6.33;72.59;99491.96;1774416;80;21198;-67
2021/05/07 00:27:37;;;;;;;15.78;8.68;;;;;;;6.34;72.63;99487.80;1773794;80;21127;-67
2021/05/07 00:30:03;;;;;;;16.05;9.58;;;;;;;6.34;72.69;99487.80;1774253;80;21249;-67
2021/05/07 00:32:30;;;;;;;19.15;9.83;;;;;;;6.38;72.75;99489.14;1774022;80;21178;-67
2021/05/07 00:34:56;;;;;;;33.83;24.05;;;;;;;6.39;72.81;99485.50;1774088;80;21087;-67
2021/05/07 00:37:22;;;;;;;31.95;19.15;;;;;;;6.37;72.86;99488.80;1774012;80;21147;-67
2021/05/07 00:39:49;;;;;;;20.02;9.73;;;;;;;6.33;72.95;99484.81;1774135;80;21122;-67
2021/05/07 00:42:15;;;;;;;14.25;8.45;;;;;;;6.26;73.01;99483.02;1774299;80;21427;-67
2021/05/07 00:44:41;;;;;;;16.82;10.00;;;;;;;6.19;73.09;99482.86;1773294;80;21191;-67
2021/05/07 00:47:08;;;;;;;19.15;10.13;;;;;;;6.15;73.18;99485.50;1774122;79;21183;-67
2021/05/07 00:49:35;;;;;;;17.32;9.63;;;;;;;6.16;73.26;99485.00;1773995;80;21100;-67
2021/05/07 00:52:03;;;;;;;16.82;10.58;;;;;;;6.15;73.37;99486.81;1774147;80;21118;-67
2021/05/07 00:54:30;;;;;;;17.92;11.57;;;;;;;6.19;73.45;99488.64;1774102;80;21248;-67
2021/05/07 00:56:56;;;;;;;19.17;10.45;;;;;;;6.19;73.54;99488.16;1773915;80;21568;-67
2021/05/07 00:59:22;;;;;;;25.20;13.53;;;;;;;6.22;73.62;99489.14;1774140;79;21159;-67
2021/05/07 01:01:49;;;;;;;22.85;13.28;;;;;;;6.25;73.70;99478.22;1774038;79;21127;-67
2021/05/07 01:04:16;;;;;;;23.90;13.93;;;;;;;6.26;73.79;99482.50;1774157;80;21131;-68
2021/05/07 01:06:43;;;;;;;25.75;14.43;;;;;;;6.29;73.83;99476.07;1774061;80;22004;-68
2021/05/07 01:09:10;;;;;;;19.82;12.18;;;;;;;6.31;73.89;99477.55;1774261;80;21107;-67
2021/05/07 01:11:36;;;;;;;27.70;16.30;;;;;;;6.31;73.96;99480.20;1774229;80;21131;-67
2021/05/07 01:14:03;;;;;;;29.57;15.80;;;;;;;6.30;74.07;99480.34;1774342;80;21171;-67
2021/05/07 01:16:32;;;;;;;27.13;16.48;;;;;;;6.31;74.16;99477.55;1774362;80;21092;-67
2021/05/07 01:18:57;;;;;;;31.00;17.05;;;;;;;6.31;74.24;99476.72;1774252;80;23733;-67
2021/05/07 01:21:24;;;;;;;21.65;13.45;;;;;;;6.25;74.31;99478.22;1783422;79;21119;-67
2021/05/07 01:23:50;;;;;;;20.23;12.30;;;;;;;6.20;74.37;99471.25;1784182;80;21584;-67
2021/05/07 01:26:16;;;;;;;18.17;12.68;;;;;;;6.19;74.44;99472.76;1784175;80;21127;-67
2021/05/07 01:28:42;;;;;;;19.07;12.13;;;;;;;6.20;74.53;99465.95;1784183;80;21588;-67
2021/05/07 01:31:09;;;;;;;19.73;12.37;;;;;;;6.21;74.62;99462.33;1784392;80;21611;-68
2021/05/07 01:33:36;;;;;;;18.00;11.40;;;;;;;6.23;74.70;99460.33;1784239;80;21134;-67
2021/05/07 01:36:03;;;;;;;20.80;10.80;;;;;;;6.26;74.76;99461.84;1784089;80;21559;-67
2021/05/07 01:38:29;;;;;;;16.90;10.80;;;;;;;6.28;74.82;99454.06;1784213;80;21576;-67
2021/05/07 01:40:57;;;;;;;17.98;10.10;;;;;;;6.30;74.90;99458.67;1784117;80;21111;-67
2021/05/07 01:43:23;;;;;;;26.35;16.48;;;;;;;6.34;74.95;99460.50;1784211;80;21166;-67
2021/05/07 01:45:50;;;;;;;27.40;19.30;;;;;;;6.31;74.99;99459.02;1783921;80;21111;-68
2021/05/07 01:48:16;;;;;;;25.52;18.40;;;;;;;6.33;75.06;99454.37;1784280;80;21504;-67
2021/05/07 01:50:45;;;;;;;159.25;79.25;;;;;;;6.33;75.10;99454.37;1784035;80;21555;-67
2021/05/07 01:53:12;;;;;;;171.55;81.72;;;;;;;6.33;75.15;99451.72;1784410;80;21623;-67
2021/05/07 01:55:40;;;;;;;55.92;24.82;;;;;;;6.34;75.23;99449.41;1784264;80;22044;-67
2021/05/07 01:58:08;;;;;;;47.50;22.62;;;;;;;6.37;75.27;99449.57;1784057;80;21599;-67
2021/05/07 02:00:35;;;;;;;53.68;23.20;;;;;;;6.35;75.35;99449.75;1784099;80;21602;-67
2021/05/07 02:03:05;;;;;;;67.62;37.50;;;;;;;6.37;75.40;99454.38;1784038;80;21138;-67
2021/05/07 02:05:34;;;;;;;57.62;27.15;;;;;;;6.39;75.44;99455.05;1784285;79;21166;-67
2021/05/07 02:08:00;;;;;;;58.60;25.73;;;;;;;6.41;75.48;99452.22;1784434;80;21654;-68
2021/05/07 02:10:29;;;;;;;51.92;24.05;;;;;;;6.33;75.53;99450.92;1784123;80;21532;-67
2021/05/07 02:12:59;;;;;;;52.75;24.57;;;;;;;6.27;75.59;99452.39;1784296;79;21170;-68
2021/05/07 02:15:26;;;;;;;101.87;46.50;;;;;;;6.28;75.65;99443.47;1784096;79;21154;-68
2021/05/07 02:17:53;;;;;;;51.70;22.00;;;;;;;6.29;75.70;99446.45;1784278;80;21155;-67
2021/05/07 02:20:22;;;;;;;37.60;17.98;;;;;;;6.29;75.78;99447.78;1780648;80;21250;-67
2021/05/07 02:22:50;;;;;;;30.55;15.83;;;;;;;6.26;75.81;99444.11;1774259;80;21920;-68
2021/05/07 02:25:19;;;;;;;30.50;14.58;;;;;;;6.26;75.87;99442.78;1774247;80;21104;-68
2021/05/07 02:27:46;;;;;;;31.12;16.17;;;;;;;6.25;75.92;99442.48;1774147;80;21604;-68
2021/05/07 02:30:15;;;;;;;33.08;16.00;;;;;;;6.24;75.96;99444.78;1774418;80;21147;-68
2021/05/07 02:32:42;;;;;;;27.30;14.53;;;;;;;6.21;76.00;99439.00;1774226;80;21223;-68
2021/05/07 02:35:09;;;;;;;25.05;14.28;;;;;;;6.21;76.05;99436.34;1774119;80;21178;-68
2021/05/07 02:37:35;;;;;;;120.95;56.37;;;;;;;6.21;76.08;99434.53;1774108;79;21103;-68
2021/05/07 02:40:04;;;;;;;79.15;37.90;;;;;;;6.20;76.13;99432.87;1774115;79;21654;-68
2021/05/07 02:42:30;;;;;;;65.08;31.93;;;;;;;6.21;76.17;99431.88;1774121;80;21141;-68
2021/05/07 02:44:56;;;;;;;31.42;16.25;;;;;;;6.17;76.23;99435.85;1774395;80;21231;-67
2021/05/07 02:47:22;;;;;;;26.95;13.58;;;;;;;6.19;76.27;99435.70;1774315;80;21179;-67
2021/05/07 02:49:49;;;;;;;28.07;14.40;;;;;;;6.22;76.32;99432.23;1773992;80;21135;-68
2021/05/07 02:52:15;;;;;;;32.13;16.10;;;;;;;6.25;76.35;99430.56;1774315;80;21192;-68
2021/05/07 02:54:41;;;;;;;26.25;16.97;;;;;;;6.30;76.40;99437.50;1774122;80;21548;-68
2021/05/07 02:57:08;;;;;;;29.15;16.75;;;;;;;6.32;76.41;99431.55;1774275;80;21183;-67
2021/05/07 02:59:34;;;;;;;27.52;15.05;;;;;;;6.32;76.46;99434.20;1774019;80;21142;-68
2021/05/07 03:02:00;;;;;;;44.98;24.30;;;;;;;6.31;76.50;99435.19;1774294;80;21104;-68
2021/05/07 03:04:27;;;;;;;41.13;22.55;;;;;;;6.34;76.52;99434.02;1774134;80;21107;-68
2021/05/07 03:06:53;;;;;;;42.15;22.60;;;;;;;6.32;76.55;99434.20;1774125;80;21540;-68
2021/05/07 03:09:19;;;;;;;38.25;22.52;;;;;;;6.30;76.57;99437.50;1774229;80;21244;-68
2021/05/07 03:11:46;;;;;;;45.50;22.98;;;;;;;6.31;76.61;99433.86;1773892;80;21123;-68
2021/05/07 03:14:12;;;;;;;43.80;25.32;;;;;;;6.30;76.65;99433.52;1774076;80;21615;-67
2021/05/07 03:16:39;;;;;;;48.90;24.70;;;;;;;6.23;76.66;99431.21;1773821;80;21120;-68
2021/05/07 03:19:05;;;;;;;35.08;19.40;;;;;;;6.16;76.70;99431.54;1774259;80;21174;-68
2021/05/07 03:21:32;;;;;;;29.60;17.67;;;;;;;6.12;76.78;99428.92;1780651;80;21187;-67
2021/05/07 03:23:58;;;;;;;34.60;20.85;;;;;;;6.07;76.85;99431.22;1783995;79;21146;-67
2021/05/07 03:26:25;;;;;;;37.83;21.48;;;;;;;6.05;76.92;99430.58;1784241;80;21107;-67
2021/05/07 03:28:51;;;;;;;49.42;28.75;;;;;;;6.02;77.01;99429.06;1783812;79;21161;-67
2021/05/07 03:31:17;;;;;;;51.23;30.12;;;;;;;6.10;77.03;99431.38;1784691;80;21991;-68
2021/05/07 03:33:45;;;;;;;109.63;52.50;;;;;;;6.14;77.05;99429.57;1777050;80;21193;-68
2021/05/07 03:36:11;;;;;;;60.58;33.85;;;;;;;6.13;77.10;99423.10;1794253;80;21147;-67
2021/05/07 03:38:38;;;;;;;39.92;22.48;;;;;;;6.07;77.16;99420.64;1769131;80;21571;-68
2021/05/07 03:41:04;;;;;;;33.05;20.52;;;;;;;5.98;77.17;99410.53;1735335;81;21524;-68
2021/05/07 03:43:30;;;;;;;31.45;18.48;;;;;;;5.96;77.22;99409.05;1763010;81;21580;-68
2021/05/07 03:45:57;;;;;;;32.42;19.17;;;;;;;5.96;77.30;99416.98;1762925;81;21206;-67
2021/05/07 03:48:23;;;;;;;66.15;42.95;;;;;;;5.98;77.34;99424.28;1762933;81;21547;-67
2021/05/07 03:50:51;;;;;;;65.25;35.05;;;;;;;5.98;77.38;99423.77;1788412;80;21131;-68
2021/05/07 03:53:18;;;;;;;41.77;25.92;;;;;;;6.01;77.42;99422.63;1794577;80;21123;-68
2021/05/07 03:55:44;;;;;;;44.77;25.17;;;;;;;6.08;77.43;99430.23;1794399;80;21114;-68
2021/05/07 03:58:10;;;;;;;42.15;24.07;;;;;;;6.11;77.46;99431.23;1794573;80;21139;-67
2021/05/07 04:00:38;;;;;;;43.35;25.02;;;;;;;6.16;77.50;99431.54;1779716;80;21154;-67
2021/05/07 04:03:04;;;;;;;44.75;26.35;;;;;;;6.20;77.51;99435.52;1788636;80;21559;-67
2021/05/07 04:05:31;;;;;;;37.58;21.95;;;;;;;6.22;77.54;99441.49;1789848;80;21127;-67
2021/05/07 04:08:07;;;;;;;30.02;19.87;;;;;;;6.21;77.57;99442.47;1762896;80;21138;-67
2021/05/07 04:10:28;;;;;;;29.40;15.40;;;;;;;6.20;77.58;99437.33;1762869;81;21397;-67
2021/05/07 04:15:20;;;;;;;35.50;21.27;;;;;;;6.13;77.67;99446.44;1764637;80;21160;-68
2021/05/07 04:17:46;;;;;;;63.02;27.15;;;;;;;6.07;77.71;99443.13;1782280;80;21527;-67
2021/05/07 04:20:13;;;;;;;80.65;37.55;;;;;;;6.05;77.70;99442.48;1777283;80;21126;-68
2021/05/07 04:22:39;;;;;;;62.60;25.97;;;;;;;6.09;77.72;99449.08;1782974;80;21202;-67
2021/05/07 04:25:07;;;;;;;33.10;20.23;;;;;;;6.12;77.72;99451.42;1792839;80;21245;-67
2021/05/07 04:27:33;;;;;;;26.90;16.05;;;;;;;6.08;77.73;99450.09;1791231;80;21113;-67
2021/05/07 04:30:00;;;;;;;17.85;12.00;;;;;;;6.11;77.72;99460.84;1789605;80;21103;-67
2021/05/07 04:32:27;;;;;;;20.17;12.18;;;;;;;6.11;77.71;99464.31;1789903;80;21130;-68
2021/05/07 04:34:53;;;;;;;22.07;12.93;;;;;;;6.15;77.74;99466.14;1789834;80;21912;-68
2021/05/07 04:37:20;;;;;;;35.78;21.57;;;;;;;6.13;77.73;99471.58;1789712;80;21168;-68
2021/05/07 04:39:46;;;;;;;28.23;16.30;;;;;;;6.12;77.78;99480.53;1783644;80;21154;-68
2021/05/07 04:42:12;;;;;;;20.45;11.78;;;;;;;6.10;77.83;99474.56;1779028;80;21213;-67
2021/05/07 04:44:41;;;;;;;20.10;12.28;;;;;;;6.14;77.85;99474.56;1779154;80;21621;-67
2021/05/07 04:47:07;;;;;;;20.88;11.30;;;;;;;6.19;77.87;99475.41;1778918;80;22037;-67
2021/05/07 04:49:34;;;;;;;16.35;9.15;;;;;;;6.21;77.87;99474.23;1779041;80;21125;-67
2021/05/07 04:52:00;;;;;;;13.50;8.13;;;;;;;6.26;77.93;99473.23;1778868;80;21129;-68
2021/05/07 04:54:27;;;;;;;12.25;8.65;;;;;;;6.31;77.91;99480.20;1775216;80;21190;-67
2021/05/07 04:56:53;;;;;;;14.60;9.55;;;;;;;6.36;77.97;99480.55;1794252;80;21603;-68
2021/05/07 04:59:19;;;;;;;19.07;12.85;;;;;;;6.35;77.97;99481.53;1794413;80;22041;-67
2021/05/07 05:01:46;;;;;;;13.62;10.72;;;;;;;6.39;78.00;99484.67;1794699;80;21123;-68
2021/05/07 05:04:12;;;;;;;12.45;8.13;;;;;;;6.37;78.05;99482.17;1794177;78;21131;-67
2021/05/07 05:06:38;;;;;;;13.03;6.90;;;;;;;6.38;78.10;99485.66;1794435;80;21154;-67
2021/05/07 05:09:05;;;;;;;10.48;6.70;;;;;;;6.39;78.12;99492.61;1794275;80;21158;-67
2021/05/07 05:11:31;;;;;;;15.88;8.65;;;;;;;6.38;78.11;99494.44;1781982;80;21596;-67
2021/05/07 05:16:43;;;;;;;28.20;17.77;;;;;;;6.51;78.16;99504.02;1800434;77;28366;-68
2021/05/07 05:19:10;;;;;;;61.08;24.45;;;;;;;6.58;78.14;99506.03;1788338;80;21120;-68
2021/05/07 05:21:36;;;;;;;67.62;27.02;;;;;;;6.62;78.19;99511.30;1777753;80;21290;-68
2021/05/07 05:24:03;;;;;;;87.72;32.25;;;;;;;6.63;78.21;99510.31;1755640;81;21543;-67
2021/05/07 05:26:30;;;;;;;99.07;37.38;;;;;;;6.62;78.23;99509.48;1752024;81;21142;-68
2021/05/07 05:28:56;;;;;;;55.05;25.35;;;;;;;6.71;78.22;99519.59;1746380;81;21170;-68
2021/05/07 05:31:22;;;;;;;11.90;7.28;;;;;;;6.78;78.22;99524.55;1747742;81;21563;-67
2021/05/07 05:33:49;;;;;;;9.98;5.85;;;;;;;6.83;78.23;99519.56;1754191;81;21192;-67
2021/05/07 05:36:15;;;;;;;11.57;6.75;;;;;;;6.87;78.23;99524.86;1756120;81;21001;-68
2021/05/07 05:38:42;;;;;;;9.48;6.28;;;;;;;6.90;78.29;99521.37;1748813;81;21130;-67
2021/05/07 05:41:09;;;;;;;10.60;5.72;;;;;;;6.96;78.26;99513.27;1755701;81;21576;-68
2021/05/07 05:43:36;;;;;;;8.33;5.60;;;;;;;7.02;78.27;99514.75;1754981;81;21099;-68
2021/05/07 05:46:02;;;;;;;14.55;7.70;;;;;;;7.07;78.26;99519.55;1756365;81;21442;-67
2021/05/07 05:48:28;;;;;;;8.95;5.80;;;;;;;7.13;78.27;99521.52;1747392;81;21169;-68
2021/05/07 05:50:55;;;;;;;8.18;5.58;;;;;;;7.13;78.27;99523.34;1757559;80;21147;-68
2021/05/07 05:53:21;;;;;;;7.45;5.80;;;;;;;7.10;78.30;99525.00;1757130;81;21166;-68
2021/05/07 05:55:47;;;;;;;16.50;6.60;;;;;;;7.06;78.29;99525.84;1757112;81;21167;-68
2021/05/07 05:58:14;;;;;;;12.45;7.75;;;;;;;7.09;78.27;99528.15;1757103;81;21135;-68
2021/05/07 06:00:40;;;;;;;26.85;9.55;;;;;;;7.18;78.30;99532.42;1756820;81;21591;-68
2021/05/07 06:03:06;;;;;;;16.20;9.43;;;;;;;7.29;78.31;99525.44;1757050;81;21052;-68
2021/05/07 06:05:33;;;;;;;16.95;9.93;;;;;;;7.39;78.31;99536.67;1748127;81;21154;-68
2021/05/07 06:07:59;;;;;;;15.40;10.40;;;;;;;7.50;78.26;99534.98;1749686;81;21177;-68
2021/05/07 06:10:26;;;;;;;19.82;11.50;;;;;;;7.62;78.28;99538.59;1746999;81;21620;-68
2021/05/07 06:12:53;;;;;;;15.68;10.53;;;;;;;7.71;78.26;99542.86;1746354;82;21173;-68
2021/05/07 06:15:20;;;;;;;19.57;12.73;;;;;;;7.83;78.29;99549.45;1751111;81;21106;-68
2021/05/07 06:17:47;;;;;;;16.05;10.75;;;;;;;7.91;78.27;99546.77;1762297;80;21164;-68
2021/05/07 06:20:16;;;;;;;21.52;10.98;;;;;;;7.98;78.22;99557.02;1762562;80;21170;-68
2021/05/07 06:22:43;;;;;;;15.45;8.90;;;;;;;8.11;78.23;99549.30;1762531;81;22051;-69
2021/05/07 06:25:12;;;;;;;12.18;7.67;;;;;;;8.30;78.14;99548.86;1762463;81;21181;-68
2021/05/07 06:27:40;;;;;;;10.35;7.12;;;;;;;8.48;78.15;99546.75;1762114;81;21153;-68
2021/05/07 06:30:08;;;;;;;15.50;8.50;;;;;;;8.63;78.12;99541.98;1762024;80;21145;-68
2021/05/07 06:32:34;;;;;;;9.53;7.12;;;;;;;8.80;78.06;99543.00;1762060;81;21535;-68
2021/05/07 06:35:01;;;;;;;13.13;6.75;;;;;;;8.96;78.03;99539.39;1761616;81;21194;-68
2021/05/07 06:37:27;;;;;;;10.93;6.90;;;;;;;8.99;77.93;99542.52;1762008;81;21465;-68
2021/05/07 06:39:54;;;;;;;17.50;7.12;;;;;;;9.03;77.82;99548.30;1761924;81;21138;-68
2021/05/07 06:42:20;;;;;;;29.48;6.85;;;;;;;9.10;77.76;99553.72;1761976;81;21175;-68
2021/05/07 06:44:46;;;;;;;13.22;6.15;;;;;;;9.13;77.64;99558.17;1761939;81;21088;-68
2021/05/07 06:47:13;;;;;;;24.30;7.20;;;;;;;9.09;77.55;99560.87;1762050;81;22034;-68
2021/05/07 06:49:43;;;;;;;24.30;7.45;;;;;;;9.08;77.43;99559.20;1762000;80;21139;-68
2021/05/07 06:52:09;;;;;;;45.40;8.18;;;;;;;9.10;77.37;99559.87;1761365;81;22200;-68
2021/05/07 06:54:36;;;;;;;15.60;6.67;;;;;;;9.10;77.28;99562.53;1762168;81;21143;-68
2021/05/07 06:57:03;;;;;;;12.63;5.75;;;;;;;9.21;77.20;99559.43;1761689;81;21123;-68
2021/05/07 06:59:29;;;;;;;23.92;9.50;;;;;;;9.33;77.05;99560.62;1761904;81;21202;-68
2021/05/07 07:01:58;;;;;;;33.88;11.15;;;;;;;9.50;76.95;99558.09;1761637;81;21151;-68
2021/05/07 07:04:24;;;;;;;37.88;11.40;;;;;;;9.69;76.84;99559.89;1761959;81;21143;-68
2021/05/07 07:06:51;;;;;;;12.75;8.18;;;;;;;9.67;76.69;99560.09;1760220;80;21598;-68
2021/05/07 07:09:17;;;;;;;67.55;10.98;;;;;;;9.69;76.59;99557.22;1755499;81;21131;-68
2021/05/07 07:11:44;;;;;;;30.77;6.08;;;;;;;9.90;76.42;99558.13;1762026;81;21131;-68
2021/05/07 07:14:10;;;;;;;12.10;4.12;;;;;;;9.93;76.18;99554.25;1761534;81;21115;-68
2021/05/07 07:16:36;;;;;;;10.25;4.97;;;;;;;9.94;75.98;99562.57;1761784;81;21168;-68
2021/05/07 07:19:03;;;;;;;9.18;4.00;;;;;;;10.02;75.90;99559.81;1761815;81;21555;-68
2021/05/07 07:21:29;;;;;;;5.53;3.62;;;;;;;9.93;75.72;99555.08;1761886;80;21586;-68
2021/05/07 07:23:56;;;;;;;6.55;3.42;;;;;;;9.82;75.63;99556.89;1761907;81;21192;-68
2021/05/07 07:26:22;;;;;;;4.50;3.10;;;;;;;9.80;75.54;99548.77;1761571;81;21127;-68
2021/05/07 07:28:52;;;;;;;6.53;3.45;;;;;;;9.73;75.37;99554.02;1761864;81;21574;-68
2021/05/07 07:31:17;;;;;;;7.40;3.58;;;;;;;9.73;75.21;99555.84;1761275;81;21161;-68
2021/05/07 07:33:43;;;;;;;6.30;4.58;;;;;;;9.71;75.01;99551.23;1761981;81;21146;-68
2021/05/07 07:36:10;;;;;;;7.78;4.47;;;;;;;9.77;74.90;99557.96;1761726;81;21384;-68
2021/05/07 07:38:36;;;;;;;6.97;3.60;;;;;;;9.84;74.71;99552.72;1761890;81;21181;-68
2021/05/07 07:41:02;;;;;;;4.85;3.30;;;;;;;9.91;74.53;99555.79;1762003;81;21161;-68
2021/05/07 07:43:29;;;;;;;5.40;4.60;;;;;;;10.06;74.37;99558.43;1762014;81;21173;-68
2021/05/07 07:45:55;;;;;;;8.50;4.00;;;;;;;10.17;74.26;99556.62;1761877;81;21143;-68
2021/05/07 07:48:21;;;;;;;5.90;3.00;;;;;;;10.34;74.16;99563.39;1761942;81;22038;-68
2021/05/07 07:50:48;;;;;;;3.15;2.80;;;;;;;10.46;73.90;99561.86;1761977;81;21197;-68
2021/05/07 07:53:14;;;;;;;5.92;3.20;;;;;;;10.57;73.78;99561.03;1761715;81;21142;-68
2021/05/07 07:55:40;;;;;;;4.00;3.17;;;;;;;10.74;73.58;99570.43;1761807;81;21201;-68
2021/05/07 07:58:08;;;;;;;6.05;3.95;;;;;;;10.80;73.32;99568.35;1761802;81;21067;-68
2021/05/07 08:00:35;;;;;;;5.35;2.98;;;;;;;10.86;73.11;99564.91;1761691;81;21855;-68
2021/05/07 08:03:01;;;;;;;4.05;2.50;;;;;;;10.80;72.93;99573.69;1762764;80;21166;-68
2021/05/07 08:05:28;;;;;;;5.40;2.67;;;;;;;10.92;72.71;99580.14;1767184;80;21515;-68
2021/05/07 08:07:58;;;;;;;6.70;2.70;;;;;;;10.97;72.50;99577.73;1770616;80;21158;-68
2021/05/07 08:10:25;;;;;;;4.22;2.65;;;;;;;11.01;72.18;99581.67;1762116;80;21120;-68
2021/05/07 08:12:51;;;;;;;7.10;3.27;;;;;;;10.93;71.94;99584.46;1762098;81;21204;-68
2021/05/07 08:15:20;;;;;;;6.78;3.17;;;;;;;10.84;71.79;99585.59;1761648;81;21146;-68
2021/05/07 08:17:48;;;;;;;7.50;3.40;;;;;;;10.70;71.57;99594.48;1761874;81;21158;-68
2021/05/07 08:20:16;;;;;;;3.60;3.00;;;;;;;10.55;71.43;99591.08;1761018;81;21150;-68
2021/05/07 08:22:44;;;;;;;5.03;3.35;;;;;;;10.43;71.25;99588.91;1761986;81;21173;-68
2021/05/07 08:25:14;;;;;;;5.33;3.45;;;;;;;10.27;71.05;99594.47;1761424;81;21143;-68
2021/05/07 08:27:40;;;;;;;11.68;3.87;;;;;;;10.27;70.91;99596.31;1761947;81;21126;-68
2021/05/07 08:30:08;;;;;;;5.37;3.42;;;;;;;10.31;70.71;99595.72;1761987;81;21204;-68
2021/05/07 08:32:35;;;;;;;6.67;3.35;;;;;;;10.29;70.53;99596.94;1761881;81;21153;-68
2021/05/07 08:35:01;;;;;;;4.55;2.87;;;;;;;10.23;70.33;99601.19;1761924;81;21153;-68
2021/05/07 08:37:27;;;;;;;5.42;3.17;;;;;;;10.12;70.22;99598.97;1761730;81;21254;-68
2021/05/07 08:39:55;;;;;;;3.90;3.50;;;;;;;10.14;70.13;99600.95;1761832;81;21154;-68
2021/05/07 08:42:21;;;;;;;6.17;3.62;;;;;;;10.09;70.07;99606.00;1761911;81;21151;-68
2021/05/07 08:44:48;;;;;;;4.75;3.52;;;;;;;10.01;69.98;99612.75;1761666;81;21134;-68
2021/05/07 08:47:19;;;;;;;3.95;3.40;;;;;;;9.91;69.90;99609.05;1762004;80;21136;-68
2021/05/07 08:49:49;;;;;;;4.03;2.87;;;;;;;9.84;69.88;99609.97;1761858;81;22031;-68
2021/05/07 08:52:17;;;;;;;8.60;6.97;;;;;;;9.78;69.88;99612.05;1762064;81;21549;-68
2021/05/07 08:54:44;;;;;;;10.32;6.67;;;;;;;9.72;69.95;99607.44;1761882;81;21170;-68
2021/05/07 08:57:10;;;;;;;6.20;3.50;;;;;;;9.77;69.98;99611.72;1761705;81;21111;-68
2021/05/07 08:59:36;;;;;;;6.53;4.12;;;;;;;9.81;69.95;99615.17;1761829;81;21158;-68
2021/05/07 09:02:03;;;;;;;6.30;3.50;;;;;;;9.82;69.91;99615.97;1761789;81;21715;-68
2021/05/07 09:04:30;;;;;;;6.25;4.90;;;;;;;9.84;69.92;99622.78;1761940;81;21112;-68
2021/05/07 09:06:56;;;;;;;6.20;4.10;;;;;;;9.89;69.89;99627.53;1761629;81;21182;-68
2021/05/07 09:12:14;;;;;;;6.67;3.25;;;;;;;9.80;69.82;99627.32;1852454;77;22679;-68
2021/05/07 09:14:46;;;;;;;5.40;3.42;;;;;;;9.65;69.79;99641.13;1814076;78;21072;-68
2021/05/07 09:17:12;;;;;;;5.35;3.25;;;;;;;9.35;69.72;99646.42;1793689;78;21526;-68
2021/05/07 09:19:39;;;;;;;17.70;9.28;;;;;;;8.98;69.68;99649.88;1792067;79;21048;-68
2021/05/07 09:22:05;;;;;;;7.67;4.42;;;;;;;8.73;69.72;99660.86;1791932;80;21481;-68
2021/05/07 09:24:34;;;;;;;11.15;4.15;;;;;;;8.56;69.71;99657.98;1804152;78;21140;-68
2021/05/07 09:27:01;;;;;;;7.73;4.40;;;;;;;8.32;69.71;99670.89;1806358;78;21140;-68
2021/05/07 09:29:30;;;;;;;9.63;4.30;;;;;;;8.18;69.78;99671.59;1810306;78;21239;-68
2021/05/07 09:32:00;;;;;;;8.23;4.70;;;;;;;8.12;69.86;99669.63;1799220;78;21041;-68
2021/05/07 09:34:27;;;;;;;6.10;3.37;;;;;;;8.15;69.99;99675.42;1750710;81;21149;-68
2021/05/07 09:36:54;;;;;;;5.87;4.15;;;;;;;8.18;70.02;99676.91;1743981;81;21107;-68
2021/05/07 09:39:26;;;;;;;10.58;5.42;;;;;;;8.11;70.09;99676.77;1739728;81;21170;-68
2021/05/07 09:41:52;;;;;;;7.90;5.62;;;;;;;8.11;70.19;99678.09;1744606;81;21210;-69
2021/05/07 09:44:23;;;;;;;6.97;4.40;;;;;;;8.10;70.27;99676.92;1757684;81;21139;-68
2021/05/07 09:46:51;;;;;;;6.08;4.12;;;;;;;8.16;70.36;99681.08;1762900;81;21187;-68
2021/05/07 09:49:31;;;;;;;10.63;5.15;;;;;;;8.28;70.42;99681.04;1763746;81;21593;-68
2021/05/07 09:51:58;;;;;;;21.42;15.10;;;;;;;8.44;70.43;99684.13;1734105;81;21191;-68
2021/05/07 09:54:25;;;;;;;38.35;22.75;;;;;;;8.58;70.38;99687.38;1755880;80;21307;-68
2021/05/07 09:56:54;;;;;;;23.05;14.83;;;;;;;8.71;70.35;99692.12;1781022;80;21584;-68
2021/05/07 09:59:21;;;;;;;14.05;10.75;;;;;;;8.80;70.36;99691.05;1784730;80;21569;-68
2021/05/07 10:01:48;;;;;;;6.03;4.33;;;;;;;8.90;70.36;99691.67;1746918;80;21116;-68
2021/05/07 10:04:14;;;;;;;8.38;4.78;;;;;;;9.00;70.35;99690.94;1737712;82;21186;-68
2021/05/07 10:06:41;;;;;;;6.92;4.20;;;;;;;9.08;70.34;99690.06;1748401;81;21575;-68
2021/05/07 10:09:08;;;;;;;9.43;6.05;;;;;;;9.06;70.26;99695.54;1754789;81;21167;-68
2021/05/07 10:11:40;;;;;;;6.95;4.12;;;;;;;9.08;70.27;99697.51;1757177;81;21183;-68
2021/05/07 10:14:12;;;;;;;6.62;4.83;;;;;;;9.11;70.21;99693.19;1740595;81;21234;-68
2021/05/07 10:16:39;;;;;;;8.63;5.10;;;;;;;9.14;70.17;99688.01;1739283;81;21184;-68
2021/05/07 10:19:11;;;;;;;7.87;5.12;;;;;;;9.26;70.11;99695.87;1745219;81;21320;-68
2021/05/07 10:21:40;;;;;;;8.58;5.37;;;;;;;9.41;70.06;99686.94;1759746;81;21172;-68
2021/05/07 10:24:11;;;;;;;6.85;5.22;;;;;;;9.65;69.94;99697.86;1753253;81;21175;-68
2021/05/07 10:26:41;;;;;;;12.18;5.22;;;;;;;9.73;69.77;99692.97;1745875;81;21140;-68
2021/05/07 10:29:23;;;;;;;7.55;4.97;;;;;;;9.71;69.69;99701.66;1754823;81;21161;-68
2021/05/07 10:31:58;;;;;;;21.48;10.95;;;;;;;9.64;69.68;99704.72;1739483;81;21370;-68
2021/05/07 10:34:26;;;;;;;35.58;18.82;;;;;;;9.47;69.65;99702.19;1743833;81;21165;-68
2021/05/07 10:36:55;;;;;;;24.63;12.88;;;;;;;9.38;69.60;99703.27;1759164;80;21557;-68
2021/05/07 10:39:27;;;;;;;28.35;10.90;;;;;;;9.30;69.55;99705.98;1755377;81;21140;-68
2021/05/07 10:41:55;;;;;;;25.57;10.40;;;;;;;9.26;69.49;99715.83;1756830;80;21861;-68
2021/05/07 10:44:23;;;;;;;34.45;19.20;;;;;;;9.16;69.46;99717.41;1755840;81;21304;-68
2021/05/07 10:47:05;;;;;;;48.95;29.90;;;;;;;9.09;69.40;99724.94;1722421;83;21759;-68
2021/05/07 10:49:32;;;;;;;22.30;12.03;;;;;;;8.95;69.37;99732.68;1719668;83;21612;-68
2021/05/07 10:51:59;;;;;;;11.97;6.67;;;;;;;8.68;69.31;99734.50;1725476;81;21171;-68
2021/05/07 10:54:47;;;;;;;12.03;6.10;;;;;;;8.41;69.36;99737.09;1756331;81;21124;-68
2021/05/07 10:57:28;;;;;;;15.08;8.48;;;;;;;8.27;69.45;99739.11;1740946;82;22123;-68
2021/05/07 11:00:03;;;;;;;22.13;11.45;;;;;;;8.16;69.50;99750.13;1741459;81;21637;-68
2021/05/07 11:02:31;;;;;;;12.30;8.33;;;;;;;8.01;69.54;99750.48;1744979;81;21197;-68
2021/05/07 11:04:58;;;;;;;19.48;8.53;;;;;;;7.86;69.65;99744.20;1739208;82;21169;-68
2021/05/07 11:07:29;;;;;;;10.30;5.60;;;;;;;7.73;69.72;99742.56;1741191;82;21197;-68
2021/05/07 11:10:06;;;;;;;13.03;5.85;;;;;;;7.63;69.83;99748.55;1740844;82;22025;-68
2021/05/07 11:12:33;;;;;;;31.33;17.25;;;;;;;7.49;69.91;99756.16;1734210;81;21429;-68
2021/05/07 11:14:59;;;;;;;32.25;21.75;;;;;;;7.48;70.10;99757.67;1778536;80;21148;-68
2021/05/07 11:17:26;;;;;;;32.53;20.43;;;;;;;7.53;70.22;99758.82;1744965;81;21156;-68
2021/05/07 11:19:52;;;;;;;21.00;12.95;;;;;;;7.68;70.40;99762.13;1738639;81;21168;-68
2021/05/07 11:22:26;;;;;;;11.40;7.33;;;;;;;7.82;70.58;99761.45;1747486;81;21206;-68
2021/05/07 11:24:53;;;;;;;23.45;8.80;;;;;;;8.00;70.78;99756.78;1734646;81;21147;-67
2021/05/07 11:27:24;;;;;;;15.15;9.30;;;;;;;8.13;70.97;99756.28;1750792;81;21167;-68
2021/05/07 11:29:52;;;;;;;11.68;7.42;;;;;;;8.30;71.12;99758.72;1759124;81;21171;-68
2021/05/07 11:32:22;;;;;;;19.95;12.05;;;;;;;8.43;71.28;99770.98;1766368;80;21601;-68
2021/05/07 11:35:01;;;;;;;16.77;11.12;;;;;;;8.41;71.42;99772.13;1763277;81;21139;-68
2021/05/07 11:37:29;;;;;;;9.87;8.03;;;;;;;8.46;71.59;99771.13;1740458;81;21168;-68
2021/05/07 11:40:12;;;;;;;12.00;8.40;;;;;;;8.51;71.76;99766.95;1753515;81;21627;-68